sensor_id;sensor_type;location;lat;lon;timestamp;temperature;humidity
65536;DHT22;52145;49.342;9.116;2022-07-29T00:02:07;21.30;75.40
65536;DHT22;52145;49.342;9.116;2022-07-29T00:04:34;21.30;75.50
65536;DHT22;52145;49.342;9.116;2022-07-29T00:07:01;21.20;75.60
65536;DHT22;52145;49.342;9.116;2022-07-29T00:09:26;21.00;76.20
65536;DHT22;52145;49.342;9.116;2022-07-29T00:11:53;20.90;76.20
65536;DHT22;52145;49.342;9.116;2022-07-29T00:14:20;20.80;76.60
65536;DHT22;52145;49.342;9.116;2022-07-29T00:16:45;20.90;76.50
65536;DHT22;52145;49.342;9.116;2022-07-29T00:19:11;20.90;76.60
65536;DHT22;52145;49.342;9.116;2022-07-29T00:21:37;20.80;76.90
65536;DHT22;52145;49.342;9.116;2022-07-29T00:24:03;20.80;77.00
65536;DHT22;52145;49.342;9.116;2022-07-29T00:26:28;20.70;76.90
65536;DHT22;52145;49.342;9.116;2022-07-29T00:29:00;20.70;77.00
65536;DHT22;52145;49.342;9.116;2022-07-29T00:31:27;20.60;77.10
65536;DHT22;52145;49.342;9.116;2022-07-29T00:33:52;20.60;77.10
65536;DHT22;52145;49.342;9.116;2022-07-29T00:36:18;20.60;77.60
65536;DHT22;52145;49.342;9.116;2022-07-29T00:38:43;20.50;77.60
65536;DHT22;52145;49.342;9.116;2022-07-29T00:41:11;20.50;77.90
65536;DHT22;52145;49.342;9.116;2022-07-29T00:43:37;20.40;77.90
65536;DHT22;52145;49.342;9.116;2022-07-29T00:46:02;20.30;78.20
65536;DHT22;52145;49.342;9.116;2022-07-29T00:48:28;20.30;78.30
65536;DHT22;52145;49.342;9.116;2022-07-29T00:50:55;20.30;78.40
65536;DHT22;52145;49.342;9.116;2022-07-29T00:53:21;20.20;79.10
65536;DHT22;52145;49.342;9.116;2022-07-29T00:55:47;20.10;79.20
65536;DHT22;52145;49.342;9.116;2022-07-29T00:58:12;20.10;79.70
65536;DHT22;52145;49.342;9.116;2022-07-29T01:00:41;19.90;80.00
65536;DHT22;52145;49.342;9.116;2022-07-29T01:03:08;19.90;80.50
65536;DHT22;52145;49.342;9.116;2022-07-29T01:05:34;19.80;80.70
65536;DHT22;52145;49.342;9.116;2022-07-29T01:08:02;19.70;81.00
65536;DHT22;52145;49.342;9.116;2022-07-29T01:10:29;19.80;81.10
65536;DHT22;52145;49.342;9.116;2022-07-29T01:12:57;19.60;81.50
65536;DHT22;52145;49.342;9.116;2022-07-29T01:15:23;19.60;81.90
65536;DHT22;52145;49.342;9.116;2022-07-29T01:20:58;19.40;82.40
65536;DHT22;52145;49.342;9.116;2022-07-29T01:31:52;19.40;82.10
65536;DHT22;52145;49.342;9.116;2022-07-29T01:34:27;19.50;82.30
65536;DHT22;52145;49.342;9.116;2022-07-29T01:37:08;19.40;82.20
65536;DHT22;52145;49.342;9.116;2022-07-29T01:39:37;19.40;82.60
65536;DHT22;52145;49.342;9.116;2022-07-29T01:42:38;19.40;82.60
65536;DHT22;52145;49.342;9.116;2022-07-29T01:45:17;19.40;82.70
65536;DHT22;52145;49.342;9.116;2022-07-29T01:47:50;19.20;82.70
65536;DHT22;52145;49.342;9.116;2022-07-29T01:50:18;19.20;83.10
65536;DHT22;52145;49.342;9.116;2022-07-29T01:53:06;19.10;83.30
65536;DHT22;52145;49.342;9.116;2022-07-29T01:55:39;19.10;83.60
65536;DHT22;52145;49.342;9.116;2022-07-29T01:58:06;19.10;83.50
65536;DHT22;52145;49.342;9.116;2022-07-29T02:00:34;19.10;83.60
65536;DHT22;52145;49.342;9.116;2022-07-29T02:03:05;19.10;83.70
65536;DHT22;52145;49.342;9.116;2022-07-29T02:05:32;19.00;84.10
65536;DHT22;52145;49.342;9.116;2022-07-29T02:08:00;18.80;84.40
65536;DHT22;52145;49.342;9.116;2022-07-29T02:10:28;18.80;84.40
65536;DHT22;52145;49.342;9.116;2022-07-29T02:12:56;18.80;84.60
65536;DHT22;52145;49.342;9.116;2022-07-29T02:15:24;18.80;84.70
65536;DHT22;52145;49.342;9.116;2022-07-29T02:17:56;18.80;84.80
65536;DHT22;52145;49.342;9.116;2022-07-29T02:20:25;18.70;85.00
65536;DHT22;52145;49.342;9.116;2022-07-29T02:22:52;18.70;85.30
65536;DHT22;52145;49.342;9.116;2022-07-29T02:25:21;18.70;85.20
65536;DHT22;52145;49.342;9.116;2022-07-29T02:27:49;18.80;85.20
65536;DHT22;52145;49.342;9.116;2022-07-29T02:30:16;18.80;85.00
65536;DHT22;52145;49.342;9.116;2022-07-29T02:32:43;18.70;85.30
65536;DHT22;52145;49.342;9.116;2022-07-29T02:35:13;18.70;85.50
65536;DHT22;52145;49.342;9.116;2022-07-29T02:37:39;18.60;85.40
65536;DHT22;52145;49.342;9.116;2022-07-29T02:40:09;18.60;85.60
65536;DHT22;52145;49.342;9.116;2022-07-29T02:42:37;18.50;85.80
65536;DHT22;52145;49.342;9.116;2022-07-29T02:45:04;18.50;86.20
65536;DHT22;52145;49.342;9.116;2022-07-29T02:47:41;18.50;86.20
65536;DHT22;52145;49.342;9.116;2022-07-29T02:50:15;18.50;86.20
65536;DHT22;52145;49.342;9.116;2022-07-29T02:53:02;18.50;86.10
65536;DHT22;52145;49.342;9.116;2022-07-29T02:55:37;18.50;85.90
65536;DHT22;52145;49.342;9.116;2022-07-29T02:58:53;18.40;85.90
65536;DHT22;52145;49.342;9.116;2022-07-29T03:00:55;18.40;86.10
65536;DHT22;52145;49.342;9.116;2022-07-29T03:03:25;18.50;86.20
65536;DHT22;52145;49.342;9.116;2022-07-29T03:05:58;18.50;85.90
65536;DHT22;52145;49.342;9.116;2022-07-29T03:08:25;18.50;86.00
65536;DHT22;52145;49.342;9.116;2022-07-29T03:10:52;18.50;86.00
65536;DHT22;52145;49.342;9.116;2022-07-29T03:13:18;18.50;86.00
65536;DHT22;52145;49.342;9.116;2022-07-29T03:15:45;18.40;86.30
65536;DHT22;52145;49.342;9.116;2022-07-29T03:18:11;18.40;86.50
65536;DHT22;52145;49.342;9.116;2022-07-29T03:20:38;18.30;87.00
65536;DHT22;52145;49.342;9.116;2022-07-29T03:23:04;18.30;87.20
65536;DHT22;52145;49.342;9.116;2022-07-29T03:25:30;18.20;87.60
65536;DHT22;52145;49.342;9.116;2022-07-29T03:27:56;18.20;87.80
65536;DHT22;52145;49.342;9.116;2022-07-29T03:30:22;18.20;87.70
65536;DHT22;52145;49.342;9.116;2022-07-29T03:32:49;18.20;87.80
65536;DHT22;52145;49.342;9.116;2022-07-29T03:35:15;18.20;87.50
65536;DHT22;52145;49.342;9.116;2022-07-29T03:37:42;18.20;87.20
65536;DHT22;52145;49.342;9.116;2022-07-29T03:40:08;18.20;87.40
65536;DHT22;52145;49.342;9.116;2022-07-29T03:42:37;18.20;87.30
65536;DHT22;52145;49.342;9.116;2022-07-29T03:45:10;18.30;87.30
65536;DHT22;52145;49.342;9.116;2022-07-29T03:47:40;18.30;87.50
65536;DHT22;52145;49.342;9.116;2022-07-29T03:50:10;18.20;87.70
65536;DHT22;52145;49.342;9.116;2022-07-29T03:52:37;18.20;87.80
65536;DHT22;52145;49.342;9.116;2022-07-29T03:55:03;18.20;87.70
65536;DHT22;52145;49.342;9.116;2022-07-29T03:57:30;18.20;87.70
65536;DHT22;52145;49.342;9.116;2022-07-29T03:59:57;18.10;87.70
65536;DHT22;52145;49.342;9.116;2022-07-29T04:02:23;18.00;87.90
65536;DHT22;52145;49.342;9.116;2022-07-29T04:04:50;18.00;88.10
65536;DHT22;52145;49.342;9.116;2022-07-29T04:07:16;17.90;88.40
65536;DHT22;52145;49.342;9.116;2022-07-29T04:09:42;17.90;89.10
65536;DHT22;52145;49.342;9.116;2022-07-29T04:12:08;17.80;89.20
65536;DHT22;52145;49.342;9.116;2022-07-29T04:14:34;17.90;88.90
65536;DHT22;52145;49.342;9.116;2022-07-29T04:17:01;17.90;88.80
65536;DHT22;52145;49.342;9.116;2022-07-29T04:19:27;17.90;89.00
65536;DHT22;52145;49.342;9.116;2022-07-29T04:21:52;17.80;89.00
65536;DHT22;52145;49.342;9.116;2022-07-29T04:24:18;17.80;89.30
65536;DHT22;52145;49.342;9.116;2022-07-29T04:26:45;17.90;89.10
65536;DHT22;52145;49.342;9.116;2022-07-29T04:29:11;17.90;88.80
65536;DHT22;52145;49.342;9.116;2022-07-29T04:31:37;17.80;89.30
65536;DHT22;52145;49.342;9.116;2022-07-29T04:34:02;17.70;89.60
65536;DHT22;52145;49.342;9.116;2022-07-29T04:36:28;17.80;89.70
65536;DHT22;52145;49.342;9.116;2022-07-29T04:38:53;17.80;89.50
65536;DHT22;52145;49.342;9.116;2022-07-29T04:41:19;17.90;89.20
65536;DHT22;52145;49.342;9.116;2022-07-29T04:43:44;18.00;89.10
65536;DHT22;52145;49.342;9.116;2022-07-29T04:46:10;18.10;88.80
65536;DHT22;52145;49.342;9.116;2022-07-29T04:48:35;18.20;88.40
65536;DHT22;52145;49.342;9.116;2022-07-29T04:51:01;18.00;89.10
65536;DHT22;52145;49.342;9.116;2022-07-29T04:53:27;18.10;89.10
65536;DHT22;52145;49.342;9.116;2022-07-29T04:55:52;18.10;88.80
65536;DHT22;52145;49.342;9.116;2022-07-29T04:58:18;18.10;88.70
65536;DHT22;52145;49.342;9.116;2022-07-29T05:00:44;18.30;88.60
65536;DHT22;52145;49.342;9.116;2022-07-29T05:03:09;18.40;88.70
65536;DHT22;52145;49.342;9.116;2022-07-29T05:05:35;18.50;87.90
65536;DHT22;52145;49.342;9.116;2022-07-29T05:08:00;18.50;87.50
65536;DHT22;52145;49.342;9.116;2022-07-29T05:10:26;18.60;87.40
65536;DHT22;52145;49.342;9.116;2022-07-29T05:12:52;18.70;87.30
65536;DHT22;52145;49.342;9.116;2022-07-29T05:15:17;18.90;86.80
65536;DHT22;52145;49.342;9.116;2022-07-29T05:17:44;19.10;86.00
65536;DHT22;52145;49.342;9.116;2022-07-29T05:20:10;19.40;85.60
65536;DHT22;52145;49.342;9.116;2022-07-29T05:22:35;19.70;84.60
65536;DHT22;52145;49.342;9.116;2022-07-29T05:25:01;19.90;83.70
65536;DHT22;52145;49.342;9.116;2022-07-29T05:27:27;19.90;83.90
65536;DHT22;52145;49.342;9.116;2022-07-29T05:29:53;19.90;83.70
65536;DHT22;52145;49.342;9.116;2022-07-29T05:32:18;20.00;83.40
65536;DHT22;52145;49.342;9.116;2022-07-29T05:34:44;20.00;83.20
65536;DHT22;52145;49.342;9.116;2022-07-29T05:37:10;20.00;82.60
65536;DHT22;52145;49.342;9.116;2022-07-29T05:39:36;20.20;82.50
65536;DHT22;52145;49.342;9.116;2022-07-29T05:42:01;20.40;82.20
65536;DHT22;52145;49.342;9.116;2022-07-29T05:44:27;20.50;81.70
65536;DHT22;52145;49.342;9.116;2022-07-29T05:46:52;20.60;81.70
65536;DHT22;52145;49.342;9.116;2022-07-29T05:49:18;20.80;81.80
65536;DHT22;52145;49.342;9.116;2022-07-29T05:51:44;20.90;82.50
65536;DHT22;52145;49.342;9.116;2022-07-29T05:54:09;20.80;82.60
65536;DHT22;52145;49.342;9.116;2022-07-29T05:56:36;20.80;83.50
65536;DHT22;52145;49.342;9.116;2022-07-29T05:59:02;20.70;83.40
65536;DHT22;52145;49.342;9.116;2022-07-29T06:01:28;20.80;83.10
65536;DHT22;52145;49.342;9.116;2022-07-29T06:03:54;20.80;83.20
65536;DHT22;52145;49.342;9.116;2022-07-29T06:06:19;21.00;82.50
65536;DHT22;52145;49.342;9.116;2022-07-29T06:08:45;21.30;80.80
65536;DHT22;52145;49.342;9.116;2022-07-29T06:11:10;21.50;79.80
65536;DHT22;52145;49.342;9.116;2022-07-29T06:13:36;21.60;79.00
65536;DHT22;52145;49.342;9.116;2022-07-29T06:16:02;21.80;78.90
65536;DHT22;52145;49.342;9.116;2022-07-29T06:18:27;22.10;77.90
65536;DHT22;52145;49.342;9.116;2022-07-29T06:20:54;22.30;78.60
65536;DHT22;52145;49.342;9.116;2022-07-29T06:23:20;22.60;77.40
65536;DHT22;52145;49.342;9.116;2022-07-29T06:25:46;22.70;76.90
65536;DHT22;52145;49.342;9.116;2022-07-29T06:28:12;22.70;76.60
65536;DHT22;52145;49.342;9.116;2022-07-29T06:30:38;22.80;75.90
65536;DHT22;52145;49.342;9.116;2022-07-29T06:33:04;23.00;75.10
65536;DHT22;52145;49.342;9.116;2022-07-29T06:35:32;23.10;74.70
65536;DHT22;52145;49.342;9.116;2022-07-29T06:37:58;23.10;75.30
65536;DHT22;52145;49.342;9.116;2022-07-29T06:40:23;23.10;74.80
65536;DHT22;52145;49.342;9.116;2022-07-29T06:43:07;23.00;75.40
65536;DHT22;52145;49.342;9.116;2022-07-29T06:45:36;23.00;76.10
65536;DHT22;52145;49.342;9.116;2022-07-29T06:48:02;23.10;76.20
65536;DHT22;52145;49.342;9.116;2022-07-29T06:50:27;23.10;76.00
65536;DHT22;52145;49.342;9.116;2022-07-29T06:52:53;23.50;76.10
65536;DHT22;52145;49.342;9.116;2022-07-29T06:55:18;23.50;75.20
65536;DHT22;52145;49.342;9.116;2022-07-29T06:57:45;23.40;74.90
65536;DHT22;52145;49.342;9.116;2022-07-29T07:00:11;23.20;75.40
65536;DHT22;52145;49.342;9.116;2022-07-29T07:02:37;23.20;75.80
65536;DHT22;52145;49.342;9.116;2022-07-29T07:05:02;23.40;76.50
65536;DHT22;52145;49.342;9.116;2022-07-29T07:07:28;23.60;77.00
65536;DHT22;52145;49.342;9.116;2022-07-29T07:09:53;23.50;77.40
65536;DHT22;52145;49.342;9.116;2022-07-29T07:12:19;23.30;78.00
65536;DHT22;52145;49.342;9.116;2022-07-29T07:14:44;23.40;78.70
65536;DHT22;52145;49.342;9.116;2022-07-29T07:17:10;23.50;78.60
65536;DHT22;52145;49.342;9.116;2022-07-29T07:19:35;23.50;78.80
65536;DHT22;52145;49.342;9.116;2022-07-29T07:22:01;23.60;78.90
65536;DHT22;52145;49.342;9.116;2022-07-29T07:24:26;23.80;78.80
65536;DHT22;52145;49.342;9.116;2022-07-29T07:26:52;24.00;78.40
65536;DHT22;52145;49.342;9.116;2022-07-29T07:29:18;23.90;78.40
65536;DHT22;52145;49.342;9.116;2022-07-29T07:31:43;24.20;78.10
65536;DHT22;52145;49.342;9.116;2022-07-29T07:34:09;24.30;78.40
65536;DHT22;52145;49.342;9.116;2022-07-29T07:36:34;24.50;78.60
65536;DHT22;52145;49.342;9.116;2022-07-29T07:39:00;24.70;78.70
65536;DHT22;52145;49.342;9.116;2022-07-29T07:41:26;24.70;79.20
65536;DHT22;52145;49.342;9.116;2022-07-29T07:43:51;24.90;79.50
65536;DHT22;52145;49.342;9.116;2022-07-29T07:46:17;25.00;80.10
65536;DHT22;52145;49.342;9.116;2022-07-29T07:48:42;25.10;81.80
65536;DHT22;52145;49.342;9.116;2022-07-29T07:51:08;25.10;83.60
65536;DHT22;52145;49.342;9.116;2022-07-29T07:53:34;25.10;84.00
65536;DHT22;52145;49.342;9.116;2022-07-29T07:56:00;25.20;83.70
65536;DHT22;52145;49.342;9.116;2022-07-29T07:58:26;25.30;83.40
65536;DHT22;52145;49.342;9.116;2022-07-29T08:00:51;25.40;83.20
65536;DHT22;52145;49.342;9.116;2022-07-29T08:03:17;25.70;82.80
65536;DHT22;52145;49.342;9.116;2022-07-29T08:05:42;26.00;81.10
65536;DHT22;52145;49.342;9.116;2022-07-29T08:08:08;25.70;80.90
65536;DHT22;52145;49.342;9.116;2022-07-29T08:10:34;25.50;81.10
65536;DHT22;52145;49.342;9.116;2022-07-29T08:13:19;25.50;81.20
65536;DHT22;52145;49.342;9.116;2022-07-29T08:15:45;25.80;79.80
65536;DHT22;52145;49.342;9.116;2022-07-29T08:18:12;26.30;79.90
65536;DHT22;52145;49.342;9.116;2022-07-29T08:20:38;26.60;79.50
65536;DHT22;52145;49.342;9.116;2022-07-29T08:23:05;26.80;79.20
65536;DHT22;52145;49.342;9.116;2022-07-29T08:25:32;27.10;79.00
65536;DHT22;52145;49.342;9.116;2022-07-29T08:27:58;27.30;78.40
65536;DHT22;52145;49.342;9.116;2022-07-29T08:30:24;27.50;78.60
65536;DHT22;52145;49.342;9.116;2022-07-29T08:32:49;27.80;78.80
65536;DHT22;52145;49.342;9.116;2022-07-29T08:35:21;28.10;78.00
65536;DHT22;52145;49.342;9.116;2022-07-29T08:37:47;28.00;77.60
65536;DHT22;52145;49.342;9.116;2022-07-29T08:40:13;27.60;76.90
65536;DHT22;52145;49.342;9.116;2022-07-29T08:42:39;27.20;77.80
65536;DHT22;52145;49.342;9.116;2022-07-29T08:45:06;26.90;78.90
65536;DHT22;52145;49.342;9.116;2022-07-29T08:47:33;26.80;79.20
65536;DHT22;52145;49.342;9.116;2022-07-29T08:49:58;26.90;80.30
65536;DHT22;52145;49.342;9.116;2022-07-29T08:52:25;27.30;78.80
65536;DHT22;52145;49.342;9.116;2022-07-29T08:54:52;27.20;78.30
65536;DHT22;52145;49.342;9.116;2022-07-29T08:57:19;27.40;78.50
65536;DHT22;52145;49.342;9.116;2022-07-29T08:59:46;27.70;77.50
65536;DHT22;52145;49.342;9.116;2022-07-29T09:02:20;28.00;76.70
65536;DHT22;52145;49.342;9.116;2022-07-29T09:04:46;28.40;75.50
65536;DHT22;52145;49.342;9.116;2022-07-29T09:07:15;28.50;74.80
65536;DHT22;52145;49.342;9.116;2022-07-29T09:09:42;28.60;74.50
65536;DHT22;52145;49.342;9.116;2022-07-29T09:12:11;29.00;74.00
65536;DHT22;52145;49.342;9.116;2022-07-29T09:14:38;28.70;74.20
65536;DHT22;52145;49.342;9.116;2022-07-29T09:17:04;28.20;75.10
65536;DHT22;52145;49.342;9.116;2022-07-29T09:19:34;27.90;76.40
65536;DHT22;52145;49.342;9.116;2022-07-29T09:22:06;27.60;75.50
65536;DHT22;52145;49.342;9.116;2022-07-29T09:24:43;27.70;76.00
65536;DHT22;52145;49.342;9.116;2022-07-29T09:27:17;27.80;75.60
65536;DHT22;52145;49.342;9.116;2022-07-29T09:29:44;28.00;75.10
65536;DHT22;52145;49.342;9.116;2022-07-29T09:32:10;28.10;75.30
65536;DHT22;52145;49.342;9.116;2022-07-29T09:34:38;27.80;75.30
65536;DHT22;52145;49.342;9.116;2022-07-29T09:37:04;27.70;75.70
65536;DHT22;52145;49.342;9.116;2022-07-29T09:41:58;27.90;75.40
65536;DHT22;52145;49.342;9.116;2022-07-29T09:44:25;28.20;75.90
65536;DHT22;52145;49.342;9.116;2022-07-29T09:46:55;28.50;74.80
65536;DHT22;52145;49.342;9.116;2022-07-29T09:49:21;28.80;72.90
65536;DHT22;52145;49.342;9.116;2022-07-29T09:51:46;28.50;74.30
65536;DHT22;52145;49.342;9.116;2022-07-29T09:54:25;28.80;74.00
65536;DHT22;52145;49.342;9.116;2022-07-29T09:56:52;29.60;73.40
65536;DHT22;52145;49.342;9.116;2022-07-29T09:59:18;29.40;72.20
65536;DHT22;52145;49.342;9.116;2022-07-29T10:01:46;29.30;73.40
65536;DHT22;52145;49.342;9.116;2022-07-29T10:04:11;29.10;73.50
65536;DHT22;52145;49.342;9.116;2022-07-29T10:06:58;29.40;73.10
65536;DHT22;52145;49.342;9.116;2022-07-29T10:09:24;29.60;72.70
65536;DHT22;52145;49.342;9.116;2022-07-29T10:12:09;29.80;72.20
65536;DHT22;52145;49.342;9.116;2022-07-29T10:14:37;29.50;72.80
65536;DHT22;52145;49.342;9.116;2022-07-29T10:17:04;29.90;72.20
65536;DHT22;52145;49.342;9.116;2022-07-29T10:19:31;30.10;71.30
65536;DHT22;52145;49.342;9.116;2022-07-29T10:22:02;30.40;71.40
65536;DHT22;52145;49.342;9.116;2022-07-29T10:24:29;30.40;70.90
65536;DHT22;52145;49.342;9.116;2022-07-29T10:26:56;30.50;71.70
65536;DHT22;52145;49.342;9.116;2022-07-29T10:29:23;30.80;72.90
65536;DHT22;52145;49.342;9.116;2022-07-29T10:32:13;31.30;71.70
65536;DHT22;52145;49.342;9.116;2022-07-29T10:43:29;32.70;69.70
65536;DHT22;52145;49.342;9.116;2022-07-29T10:45:59;32.60;69.00
65536;DHT22;52145;49.342;9.116;2022-07-29T10:48:25;32.10;69.80
65536;DHT22;52145;49.342;9.116;2022-07-29T10:51:03;32.00;69.20
65536;DHT22;52145;49.342;9.116;2022-07-29T10:56:28;31.50;69.70
65536;DHT22;52145;49.342;9.116;2022-07-29T11:01:52;31.60;69.80
65536;DHT22;52145;49.342;9.116;2022-07-29T11:07:08;30.30;71.80
65536;DHT22;52145;49.342;9.116;2022-07-29T11:09:34;30.60;71.60
65536;DHT22;52145;49.342;9.116;2022-07-29T11:12:00;30.80;71.20
65536;DHT22;52145;49.342;9.116;2022-07-29T11:15:00;31.20;69.90
65536;DHT22;52145;49.342;9.116;2022-07-29T11:17:28;32.30;69.80
65536;DHT22;52145;49.342;9.116;2022-07-29T11:22:57;33.50;67.50
65536;DHT22;52145;49.342;9.116;2022-07-29T11:25:23;33.30;67.60
65536;DHT22;52145;49.342;9.116;2022-07-29T11:27:49;32.60;67.30
65536;DHT22;52145;49.342;9.116;2022-07-29T11:30:17;32.10;67.70
65536;DHT22;52145;49.342;9.116;2022-07-29T11:32:43;32.50;66.70
65536;DHT22;52145;49.342;9.116;2022-07-29T11:35:17;32.90;66.70
65536;DHT22;52145;49.342;9.116;2022-07-29T11:37:44;33.90;65.20
65536;DHT22;52145;49.342;9.116;2022-07-29T11:40:11;34.10;65.70
65536;DHT22;52145;49.342;9.116;2022-07-29T11:42:38;34.80;64.40
65536;DHT22;52145;49.342;9.116;2022-07-29T11:45:15;34.60;64.30
65536;DHT22;52145;49.342;9.116;2022-07-29T11:47:55;33.60;65.00
65536;DHT22;52145;49.342;9.116;2022-07-29T11:52:53;34.50;64.20
65536;DHT22;52145;49.342;9.116;2022-07-29T11:55:20;35.90;63.90
65536;DHT22;52145;49.342;9.116;2022-07-29T11:58:08;36.70;61.70
65536;DHT22;52145;49.342;9.116;2022-07-29T12:00:39;37.70;60.50
65536;DHT22;52145;49.342;9.116;2022-07-29T12:03:07;37.80;59.20
65536;DHT22;52145;49.342;9.116;2022-07-29T12:08:16;35.60;60.20
65536;DHT22;52145;49.342;9.116;2022-07-29T12:10:45;36.00;60.10
65536;DHT22;52145;49.342;9.116;2022-07-29T12:13:12;36.80;59.90
65536;DHT22;52145;49.342;9.116;2022-07-29T12:15:39;37.00;59.40
65536;DHT22;52145;49.342;9.116;2022-07-29T12:18:14;36.90;59.30
65536;DHT22;52145;49.342;9.116;2022-07-29T12:20:40;37.00;58.60
65536;DHT22;52145;49.342;9.116;2022-07-29T12:23:07;38.20;60.10
65536;DHT22;52145;49.342;9.116;2022-07-29T12:25:35;39.30;59.20
65536;DHT22;52145;49.342;9.116;2022-07-29T12:28:05;38.80;58.80
65536;DHT22;52145;49.342;9.116;2022-07-29T12:30:41;38.70;59.20
65536;DHT22;52145;49.342;9.116;2022-07-29T12:33:29;38.30;58.60
65536;DHT22;52145;49.342;9.116;2022-07-29T12:35:57;38.70;58.10
65536;DHT22;52145;49.342;9.116;2022-07-29T12:38:23;38.40;58.40
65536;DHT22;52145;49.342;9.116;2022-07-29T12:40:51;38.20;58.30
65536;DHT22;52145;49.342;9.116;2022-07-29T12:43:22;38.20;57.10
65536;DHT22;52145;49.342;9.116;2022-07-29T12:45:55;38.40;57.00
65536;DHT22;52145;49.342;9.116;2022-07-29T12:48:39;37.90;58.10
65536;DHT22;52145;49.342;9.116;2022-07-29T12:51:06;37.90;58.40
65536;DHT22;52145;49.342;9.116;2022-07-29T12:53:33;38.00;57.80
65536;DHT22;52145;49.342;9.116;2022-07-29T12:55:59;37.00;58.00
65536;DHT22;52145;49.342;9.116;2022-07-29T12:58:40;36.70;57.70
65536;DHT22;52145;49.342;9.116;2022-07-29T13:06:34;37.20;58.20
65536;DHT22;52145;49.342;9.116;2022-07-29T13:09:05;36.90;58.70
65536;DHT22;52145;49.342;9.116;2022-07-29T13:11:40;36.70;59.10
65536;DHT22;52145;49.342;9.116;2022-07-29T13:14:09;36.40;58.40
65536;DHT22;52145;49.342;9.116;2022-07-29T13:16:35;36.00;58.90
65536;DHT22;52145;49.342;9.116;2022-07-29T13:19:06;34.50;59.60
65536;DHT22;52145;49.342;9.116;2022-07-29T13:21:32;33.40;61.30
65536;DHT22;52145;49.342;9.116;2022-07-29T13:23:57;32.60;62.10
65536;DHT22;52145;49.342;9.116;2022-07-29T13:26:23;32.60;62.60
65536;DHT22;52145;49.342;9.116;2022-07-29T13:28:48;32.70;62.50
65536;DHT22;52145;49.342;9.116;2022-07-29T13:31:14;32.60;62.50
65536;DHT22;52145;49.342;9.116;2022-07-29T13:33:39;32.10;63.10
65536;DHT22;52145;49.342;9.116;2022-07-29T13:36:05;32.20;62.90
65536;DHT22;52145;49.342;9.116;2022-07-29T13:38:31;32.40;63.60
65536;DHT22;52145;49.342;9.116;2022-07-29T13:40:56;32.20;62.70
65536;DHT22;52145;49.342;9.116;2022-07-29T13:43:22;31.50;63.00
65536;DHT22;52145;49.342;9.116;2022-07-29T13:45:47;31.10;63.00
65536;DHT22;52145;49.342;9.116;2022-07-29T13:48:13;31.20;63.10
65536;DHT22;52145;49.342;9.116;2022-07-29T13:50:38;31.50;62.70
65536;DHT22;52145;49.342;9.116;2022-07-29T13:53:04;32.00;61.30
65536;DHT22;52145;49.342;9.116;2022-07-29T13:55:29;31.80;61.90
65536;DHT22;52145;49.342;9.116;2022-07-29T13:57:55;31.80;61.50
65536;DHT22;52145;49.342;9.116;2022-07-29T14:00:21;31.80;61.80
65536;DHT22;52145;49.342;9.116;2022-07-29T14:02:46;31.50;61.60
65536;DHT22;52145;49.342;9.116;2022-07-29T14:05:12;31.30;60.40
65536;DHT22;52145;49.342;9.116;2022-07-29T14:07:38;30.80;61.70
65536;DHT22;52145;49.342;9.116;2022-07-29T14:10:07;30.70;62.30
65536;DHT22;52145;49.342;9.116;2022-07-29T14:12:33;30.50;62.60
65536;DHT22;52145;49.342;9.116;2022-07-29T14:14:58;30.40;63.20
65536;DHT22;52145;49.342;9.116;2022-07-29T14:17:24;30.60;64.10
65536;DHT22;52145;49.342;9.116;2022-07-29T14:19:49;30.80;63.80
65536;DHT22;52145;49.342;9.116;2022-07-29T14:22:15;30.50;64.80
65536;DHT22;52145;49.342;9.116;2022-07-29T14:24:40;30.80;64.80
65536;DHT22;52145;49.342;9.116;2022-07-29T14:27:07;30.50;64.40
65536;DHT22;52145;49.342;9.116;2022-07-29T14:29:33;30.30;65.00
65536;DHT22;52145;49.342;9.116;2022-07-29T14:31:59;30.50;64.50
65536;DHT22;52145;49.342;9.116;2022-07-29T14:34:24;30.40;64.60
65536;DHT22;52145;49.342;9.116;2022-07-29T14:36:50;30.50;65.20
65536;DHT22;52145;49.342;9.116;2022-07-29T14:39:15;30.90;66.40
65536;DHT22;52145;49.342;9.116;2022-07-29T14:41:42;31.30;64.80
65536;DHT22;52145;49.342;9.116;2022-07-29T14:44:08;31.70;64.00
65536;DHT22;52145;49.342;9.116;2022-07-29T14:46:33;31.90;63.80
65536;DHT22;52145;49.342;9.116;2022-07-29T14:48:59;31.50;64.20
65536;DHT22;52145;49.342;9.116;2022-07-29T14:51:24;31.10;63.90
65536;DHT22;52145;49.342;9.116;2022-07-29T14:53:50;30.80;64.70
65536;DHT22;52145;49.342;9.116;2022-07-29T14:56:16;30.90;64.50
65536;DHT22;52145;49.342;9.116;2022-07-29T14:58:41;31.40;64.50
65536;DHT22;52145;49.342;9.116;2022-07-29T15:01:07;31.80;63.60
65536;DHT22;52145;49.342;9.116;2022-07-29T15:03:32;31.70;63.20
65536;DHT22;52145;49.342;9.116;2022-07-29T15:05:58;31.60;63.20
65536;DHT22;52145;49.342;9.116;2022-07-29T15:08:23;31.90;62.50
65536;DHT22;52145;49.342;9.116;2022-07-29T15:10:50;32.20;62.80
65536;DHT22;52145;49.342;9.116;2022-07-29T15:13:16;32.70;61.70
65536;DHT22;52145;49.342;9.116;2022-07-29T15:15:41;32.80;61.80
65536;DHT22;52145;49.342;9.116;2022-07-29T15:18:07;32.80;61.40
65536;DHT22;52145;49.342;9.116;2022-07-29T15:20:34;32.50;62.00
65536;DHT22;52145;49.342;9.116;2022-07-29T15:23:00;32.60;61.60
65536;DHT22;52145;49.342;9.116;2022-07-29T15:25:26;32.40;61.70
65536;DHT22;52145;49.342;9.116;2022-07-29T15:27:51;32.40;61.10
65536;DHT22;52145;49.342;9.116;2022-07-29T15:30:17;32.30;61.50
65536;DHT22;52145;49.342;9.116;2022-07-29T15:32:43;32.30;61.00
65536;DHT22;52145;49.342;9.116;2022-07-29T15:35:09;31.30;60.60
65536;DHT22;52145;49.342;9.116;2022-07-29T15:37:38;31.00;61.70
65536;DHT22;52145;49.342;9.116;2022-07-29T15:40:05;30.60;62.10
65536;DHT22;52145;49.342;9.116;2022-07-29T15:42:31;30.90;62.70
65536;DHT22;52145;49.342;9.116;2022-07-29T15:44:56;31.00;61.50
65536;DHT22;52145;49.342;9.116;2022-07-29T15:47:22;30.80;62.20
65536;DHT22;52145;49.342;9.116;2022-07-29T15:49:48;30.50;62.20
65536;DHT22;52145;49.342;9.116;2022-07-29T15:52:19;30.30;62.50
65536;DHT22;52145;49.342;9.116;2022-07-29T15:54:44;30.30;63.70
65536;DHT22;52145;49.342;9.116;2022-07-29T15:57:11;30.40;64.70
65536;DHT22;52145;49.342;9.116;2022-07-29T15:59:37;30.60;65.80
65536;DHT22;52145;49.342;9.116;2022-07-29T16:02:04;30.20;67.20
65536;DHT22;52145;49.342;9.116;2022-07-29T16:04:30;30.00;68.00
65536;DHT22;52145;49.342;9.116;2022-07-29T16:06:56;29.70;68.10
65536;DHT22;52145;49.342;9.116;2022-07-29T16:09:22;29.30;68.80
65536;DHT22;52145;49.342;9.116;2022-07-29T16:11:47;29.10;69.40
65536;DHT22;52145;49.342;9.116;2022-07-29T16:14:16;28.90;69.80
65536;DHT22;52145;49.342;9.116;2022-07-29T16:16:41;29.00;69.90
65536;DHT22;52145;49.342;9.116;2022-07-29T16:19:07;29.00;70.00